createdAt,value
2018-12-02T00:01:02.714Z,0.80
2018-12-02T00:03:31.764Z,0.90
2018-12-02T00:06:01.390Z,0.70
2018-12-02T00:08:29.948Z,0.70
2018-12-02T00:10:59.301Z,0.70
2018-12-02T00:13:28.330Z,0.70
2018-12-02T00:15:57.392Z,0.70
2018-12-02T00:18:26.683Z,0.67
2018-12-02T00:21:00.649Z,0.70
2018-12-02T00:23:29.713Z,0.70
2018-12-02T00:26:11.317Z,0.50
2018-12-02T00:28:41.053Z,0.57
2018-12-02T00:31:10.178Z,0.70
2018-12-02T00:33:38.883Z,0.63
2018-12-02T00:36:08.234Z,0.90
2018-12-02T00:38:36.792Z,0.67
2018-12-02T00:41:09.383Z,0.87
2018-12-02T00:43:38.693Z,0.90
2018-12-02T00:46:11.513Z,0.93
2018-12-02T00:48:40.102Z,0.70
2018-12-02T00:51:08.679Z,0.80
2018-12-02T00:53:37.704Z,1.00
2018-12-02T00:56:05.800Z,1.47
2018-12-02T00:58:34.396Z,1.40
2018-12-02T01:01:03.448Z,0.90
2018-12-02T01:03:32.784Z,1.07
2018-12-02T01:06:01.892Z,1.30
2018-12-02T01:08:30.948Z,1.00
2018-12-02T01:10:59.784Z,1.50
2018-12-02T01:13:28.363Z,1.07
2018-12-02T01:15:57.409Z,0.90
2018-12-02T01:18:29.292Z,0.93
2018-12-02T01:20:58.353Z,0.93
2018-12-02T01:23:31.097Z,1.10
2018-12-02T01:26:00.475Z,1.50
2018-12-02T01:28:33.172Z,2.23
2018-12-02T01:31:02.251Z,1.00
2018-12-02T01:33:31.102Z,1.30
2018-12-02T01:35:59.674Z,1.13
2018-12-02T01:38:28.273Z,1.10
2018-12-02T01:40:57.625Z,1.17
2018-12-02T01:43:26.171Z,0.97
2018-12-02T01:45:54.756Z,1.63
2018-12-02T01:48:24.087Z,1.43
2018-12-02T01:50:53.218Z,1.67
2018-12-02T01:53:22.324Z,1.20
2018-12-02T01:55:51.685Z,0.80
2018-12-02T01:58:20.723Z,0.80
2018-12-02T02:00:54.663Z,2.10
2018-12-02T02:03:23.976Z,2.83
2018-12-02T02:05:57.148Z,2.10
2018-12-02T02:08:26.160Z,0.87
2018-12-02T02:11:00.389Z,1.70
2018-12-02T02:13:29.437Z,2.63
2018-12-02T02:16:06.121Z,4.23
2018-12-02T02:18:35.411Z,6.37
2018-12-02T02:21:05.825Z,2.50
2018-12-02T02:23:34.837Z,4.03
2018-12-02T02:26:08.722Z,1.97
2018-12-02T02:28:37.775Z,2.87
2018-12-02T02:31:11.794Z,4.53
2018-12-02T02:33:40.589Z,2.07
2018-12-02T02:36:15.393Z,9.10
2018-12-02T02:38:43.947Z,1.80
2018-12-02T02:41:15.956Z,7.50
2018-12-02T02:43:45.936Z,1.73
2018-12-02T02:46:19.037Z,4.53
2018-12-02T02:48:48.367Z,3.30
2018-12-02T02:51:23.636Z,4.90
2018-12-02T02:53:52.224Z,2.20
2018-12-02T02:56:23.181Z,4.17
2018-12-02T02:58:52.208Z,8.70
2018-12-02T03:01:25.382Z,2.30
2018-12-02T03:03:54.401Z,4.37
2018-12-02T03:06:27.721Z,2.73
2018-12-02T03:08:56.356Z,3.03
2018-12-02T03:11:31.621Z,2.13
2018-12-02T03:16:32.745Z,1.70
2018-12-02T03:19:01.920Z,1.30
2018-12-02T03:21:34.480Z,0.50
2018-12-02T03:24:03.084Z,0.40
2018-12-02T03:26:35.886Z,0.30
2018-12-02T03:29:04.561Z,0.60
2018-12-02T03:31:33.130Z,0.40
2018-12-02T03:34:02.454Z,0.40
2018-12-02T03:36:31.460Z,0.20
2018-12-02T03:39:00.495Z,0.50
2018-12-02T03:41:29.840Z,0.40
2018-12-02T03:43:58.861Z,0.23
2018-12-02T03:46:27.881Z,0.47
2018-12-02T03:48:57.176Z,0.37
2018-12-02T03:51:26.997Z,0.60
2018-12-02T03:53:56.024Z,0.27
2018-12-02T03:56:25.346Z,0.40
2018-12-02T03:58:56.540Z,0.40
2018-12-02T04:01:25.083Z,0.40
2018-12-02T04:04:00.816Z,0.40
2018-12-02T04:06:29.393Z,0.60
2018-12-02T04:09:02.396Z,0.60
2018-12-02T04:11:31.320Z,0.50
2018-12-02T04:14:04.370Z,0.40
2018-12-02T04:16:33.714Z,0.50
2018-12-02T04:19:07.248Z,0.40
2018-12-02T04:21:36.247Z,0.40
2018-12-02T04:24:10.288Z,0.43
2018-12-02T04:26:39.311Z,0.40
2018-12-02T04:29:12.725Z,0.50
2018-12-02T04:31:41.801Z,0.40
2018-12-02T04:34:16.498Z,0.57
2018-12-02T04:36:45.246Z,0.60
2018-12-02T04:39:18.308Z,0.40
2018-12-02T04:41:47.312Z,0.60
2018-12-02T04:44:20.041Z,0.40
2018-12-02T04:46:48.901Z,0.33
2018-12-02T04:49:22.397Z,0.60
2018-12-02T04:51:51.436Z,0.30
2018-12-02T04:54:25.526Z,0.10
2018-12-02T04:56:54.083Z,0.30
2018-12-02T04:59:29.669Z,0.13
2018-12-02T05:01:58.969Z,0.60
2018-12-02T05:04:30.787Z,0.20
2018-12-02T05:06:59.813Z,0.20
2018-12-02T05:09:32.699Z,0.30
2018-12-02T05:12:01.703Z,0.20
2018-12-02T05:14:35.592Z,0.10
2018-12-02T05:17:04.957Z,0.17
2018-12-02T05:19:37.828Z,0.30
2018-12-02T05:22:07.029Z,0.20
2018-12-02T05:24:43.956Z,0.30
2018-12-02T05:27:13.250Z,0.30
2018-12-02T05:29:44.883Z,0.17
2018-12-02T05:32:13.460Z,0.30
2018-12-02T05:34:47.386Z,0.30
2018-12-02T05:37:15.947Z,0.43
2018-12-02T05:39:48.788Z,0.20
2018-12-02T05:42:23.076Z,0.10
2018-12-02T05:44:52.164Z,0.63
2018-12-02T05:47:20.739Z,0.80
2018-12-02T05:49:52.981Z,0.60
2018-12-02T05:52:21.532Z,0.80
2018-12-02T05:54:54.651Z,0.90
2018-12-02T05:57:23.211Z,0.70
2018-12-02T05:59:52.225Z,0.70
2018-12-02T06:02:22.547Z,0.50
2018-12-02T06:04:51.137Z,0.50
2018-12-02T06:07:19.695Z,0.33
2018-12-02T06:09:49.052Z,0.50
2018-12-02T06:12:18.097Z,0.67
2018-12-02T06:14:46.647Z,0.30
2018-12-02T06:17:15.936Z,0.23
2018-12-02T06:19:44.548Z,0.20
2018-12-02T06:22:13.172Z,0.10
2018-12-02T06:24:42.322Z,0.50
2018-12-02T06:27:14.701Z,0.57
2018-12-02T06:29:43.343Z,0.50
2018-12-02T06:32:15.585Z,0.40
2018-12-02T06:34:45.136Z,0.30
2018-12-02T06:37:18.068Z,0.30
2018-12-02T06:39:46.620Z,0.20
2018-12-02T06:42:15.226Z,0.30
2018-12-02T06:44:44.592Z,0.27
2018-12-02T06:47:13.612Z,0.20
2018-12-02T06:49:43.156Z,0.37
2018-12-02T06:52:11.988Z,0.53
2018-12-02T06:54:41.234Z,0.33
2018-12-02T06:57:10.936Z,0.40
2018-12-02T06:59:47.421Z,0.30
2018-12-02T07:02:48.713Z,0.50
2018-12-02T07:05:22.851Z,0.30
2018-12-02T07:07:51.873Z,0.50
2018-12-02T07:10:20.996Z,0.50
2018-12-02T07:12:49.984Z,0.40
2018-12-02T07:15:19.161Z,1.40
2018-12-02T07:17:50.581Z,0.60
2018-12-02T07:20:20.784Z,0.60
2018-12-02T07:22:55.058Z,0.30
2018-12-02T07:25:25.993Z,0.40
2018-12-02T07:27:54.897Z,0.10
2018-12-02T07:30:25.113Z,0.40
2018-12-02T07:32:52.228Z,0.37
2018-12-02T07:35:21.558Z,0.33
2018-12-02T07:37:54.546Z,0.30
2018-12-02T07:40:24.387Z,0.30
2018-12-02T07:42:54.189Z,0.50
2018-12-02T07:45:22.769Z,0.43
2018-12-02T07:47:55.223Z,0.40
2018-12-02T07:50:24.595Z,0.60
2018-12-02T07:52:58.349Z,0.33
2018-12-02T07:55:27.406Z,0.50
2018-12-02T07:57:57.067Z,0.50
2018-12-02T08:00:27.772Z,0.50
2018-12-02T08:02:56.380Z,0.47
2018-12-02T08:05:25.255Z,0.80
2018-12-02T08:07:54.306Z,0.47
2018-12-02T08:10:23.446Z,0.83
2018-12-02T08:12:52.309Z,0.60
2018-12-02T08:15:21.536Z,0.60
2018-12-02T08:17:50.563Z,0.80
2018-12-02T08:20:19.166Z,0.60
2018-12-02T08:22:51.455Z,0.43
2018-12-02T08:25:18.885Z,0.80
2018-12-02T08:27:47.920Z,0.60
2018-12-02T08:30:21.893Z,0.70
2018-12-02T08:32:50.495Z,1.00
2018-12-02T08:35:32.073Z,0.90
2018-12-02T08:38:01.608Z,0.73
2018-12-02T08:40:30.509Z,1.10
2018-12-02T08:42:59.640Z,0.90
2018-12-02T08:45:28.245Z,1.10
2018-12-02T08:47:57.141Z,0.70
2018-12-02T08:50:29.766Z,0.80
2018-12-02T08:52:59.861Z,0.77
2018-12-02T08:55:41.563Z,0.70
2018-12-02T08:58:10.541Z,0.60
2018-12-02T09:00:39.651Z,0.77
2018-12-02T09:03:10.058Z,1.53
2018-12-02T09:05:38.673Z,0.70
2018-12-02T09:08:08.861Z,1.03
2018-12-02T09:10:40.202Z,0.70
2018-12-02T09:13:10.142Z,0.73
2018-12-02T09:15:43.822Z,0.70
2018-12-02T09:18:12.685Z,0.83
2018-12-02T09:20:45.679Z,0.70
2018-12-02T09:23:14.731Z,0.50
2018-12-02T09:25:49.001Z,0.40
2018-12-02T09:28:17.587Z,0.70
2018-12-02T09:30:50.345Z,0.73
2018-12-02T09:33:19.669Z,0.80
2018-12-02T09:35:52.594Z,0.70
2018-12-02T09:38:21.238Z,1.20
2018-12-02T09:40:50.856Z,0.83
2018-12-02T09:43:20.583Z,1.00
2018-12-02T09:45:49.611Z,1.10
2018-12-02T09:48:18.677Z,1.30
2018-12-02T09:50:48.061Z,0.97
2018-12-02T09:53:16.643Z,1.37
2018-12-02T09:55:46.010Z,1.00
2018-12-02T09:58:21.883Z,0.93
2018-12-02T10:00:50.942Z,1.00
2018-12-02T10:03:20.018Z,1.00
2018-12-02T10:05:49.560Z,1.00
2018-12-02T10:08:18.607Z,0.80
2018-12-02T10:10:47.734Z,1.13
2018-12-02T10:13:18.816Z,0.73
2018-12-02T10:15:47.925Z,0.77
2018-12-02T10:18:18.917Z,0.80
2018-12-02T10:20:47.806Z,0.80
2018-12-02T10:23:28.982Z,0.67
2018-12-02T10:25:57.620Z,0.70
2018-12-02T10:28:26.284Z,0.50
2018-12-02T10:30:55.350Z,0.70
2018-12-02T10:33:24.589Z,0.53
2018-12-02T10:35:53.630Z,0.33
2018-12-02T10:38:26.291Z,0.80
2018-12-02T10:40:55.651Z,0.80
2018-12-02T10:43:31.476Z,0.60
2018-12-02T10:46:00.051Z,1.00
2018-12-02T10:48:42.350Z,0.73
2018-12-02T10:51:12.930Z,0.73
2018-12-02T10:53:43.412Z,0.70
2018-12-02T10:56:12.332Z,0.67
2018-12-02T10:58:41.505Z,0.80
2018-12-02T11:01:15.653Z,0.80
2018-12-02T11:03:47.638Z,0.97
2018-12-02T11:06:16.252Z,1.07
2018-12-02T11:08:46.061Z,0.97
2018-12-02T11:11:15.297Z,0.80
2018-12-02T11:13:45.779Z,0.90
2018-12-02T11:16:14.631Z,1.00
2018-12-02T11:18:55.930Z,0.90
2018-12-02T11:21:24.521Z,0.93
2018-12-02T11:23:53.871Z,0.97
2018-12-02T11:26:22.937Z,1.40
2018-12-02T11:28:54.233Z,1.33
2018-12-02T11:31:23.277Z,1.10
2018-12-02T11:33:57.640Z,1.30
2018-12-02T11:36:26.518Z,0.90
2018-12-02T11:38:58.856Z,1.00
2018-12-02T11:41:27.514Z,1.10
2018-12-02T11:44:02.620Z,1.10
2018-12-02T11:46:31.689Z,0.90
2018-12-02T11:49:04.700Z,0.80
2018-12-02T11:51:33.576Z,1.10
2018-12-02T11:54:06.765Z,1.20
2018-12-02T11:56:35.388Z,1.00
2018-12-02T11:59:04.000Z,1.37
2018-12-02T12:01:32.600Z,1.43
2018-12-02T12:04:02.035Z,1.60
2018-12-02T12:06:31.126Z,1.40
2018-12-02T12:09:00.150Z,1.47
2018-12-02T12:11:29.056Z,1.20
2018-12-02T12:13:57.656Z,1.20
2018-12-02T12:16:26.705Z,1.63
2018-12-02T12:18:58.040Z,1.40
2018-12-02T12:21:27.093Z,1.70
2018-12-02T12:23:55.677Z,1.53
2018-12-02T12:26:25.702Z,1.97
2018-12-02T12:28:54.775Z,2.10
2018-12-02T12:31:36.423Z,1.80
2018-12-02T12:34:05.548Z,1.67
2018-12-02T12:36:34.157Z,1.50
2018-12-02T12:39:03.457Z,1.50
2018-12-02T12:41:32.044Z,1.80
2018-12-02T12:44:01.099Z,2.13
2018-12-02T12:46:33.889Z,1.80
2018-12-02T12:49:02.505Z,1.63
2018-12-02T12:51:39.818Z,1.40
2018-12-02T12:54:04.873Z,1.70
2018-12-02T12:56:38.033Z,1.73
2018-12-02T12:59:06.900Z,1.93
2018-12-02T13:01:35.876Z,2.10
2018-12-02T13:04:08.960Z,2.20
2018-12-02T13:06:37.812Z,2.50
2018-12-02T13:09:09.355Z,2.47
2018-12-02T13:11:38.023Z,2.53
2018-12-02T13:14:06.878Z,1.97
2018-12-02T13:16:35.568Z,2.07
2018-12-02T13:19:05.005Z,2.30
2018-12-02T13:21:34.310Z,2.67
2018-12-02T13:24:02.964Z,2.10
2018-12-02T13:26:32.039Z,1.70
2018-12-02T13:29:00.971Z,1.70
2018-12-02T13:31:29.567Z,1.60
2018-12-02T13:34:01.912Z,1.80
2018-12-02T13:36:31.225Z,1.60
2018-12-02T13:39:07.699Z,1.90
2018-12-02T13:41:36.556Z,1.90
2018-12-02T13:44:08.385Z,2.20
2018-12-02T13:46:37.452Z,2.30
2018-12-02T13:49:18.734Z,2.33
2018-12-02T13:51:47.755Z,2.30
2018-12-02T13:54:21.816Z,1.90
2018-12-02T13:56:50.588Z,2.30
2018-12-02T13:59:19.739Z,2.30
2018-12-02T14:01:48.330Z,2.10
2018-12-02T14:04:17.136Z,1.80
2018-12-02T14:06:46.005Z,1.80
2018-12-02T14:09:21.802Z,1.73
2018-12-02T14:11:50.459Z,2.20
2018-12-02T14:14:22.324Z,1.93
2018-12-02T14:16:58.553Z,2.33
2018-12-02T14:19:29.710Z,2.03
2018-12-02T14:21:58.765Z,1.60
2018-12-02T14:24:27.913Z,1.77
2018-12-02T14:26:56.819Z,1.80
2018-12-02T14:29:32.846Z,2.00
2018-12-02T14:32:03.826Z,1.83
2018-12-02T14:34:32.694Z,1.70
2018-12-02T14:37:01.285Z,2.00
2018-12-02T14:39:34.097Z,1.80
2018-12-02T14:42:02.989Z,1.93
2018-12-02T14:44:35.553Z,1.93
2018-12-02T14:47:04.465Z,2.40
2018-12-02T14:49:39.218Z,2.40
2018-12-02T14:52:08.332Z,2.77
2018-12-02T14:54:41.588Z,2.60
2018-12-02T14:57:10.473Z,2.30
2018-12-02T14:59:43.480Z,2.20
2018-12-02T15:02:12.753Z,2.33
2018-12-02T15:04:45.544Z,2.00
2018-12-02T15:07:14.744Z,1.90
2018-12-02T15:09:48.393Z,2.17
2018-12-02T15:12:17.719Z,2.00
2018-12-02T15:14:46.346Z,1.87
2018-12-02T15:17:15.516Z,1.80
2018-12-02T15:19:44.871Z,1.70
2018-12-02T15:22:14.153Z,1.90
2018-12-02T15:24:43.925Z,1.60
2018-12-02T15:27:12.976Z,1.80
2018-12-02T15:29:41.831Z,1.90
2018-12-02T15:32:10.433Z,2.00
2018-12-02T15:34:39.512Z,1.93
2018-12-02T15:37:08.500Z,2.10
2018-12-02T15:39:37.432Z,2.30
2018-12-02T15:42:10.208Z,2.20
2018-12-02T15:44:39.346Z,4.13
2018-12-02T15:47:11.873Z,2.80
2018-12-02T15:49:40.730Z,19.93
2018-12-02T15:52:14.577Z,41.63
2018-12-02T15:54:43.882Z,26.20
2018-12-02T15:57:16.848Z,15.60
2018-12-02T15:59:45.737Z,7.97
2018-12-02T16:02:18.929Z,9.17
2018-12-02T16:04:47.494Z,5.33
2018-12-02T16:07:20.257Z,4.07
2018-12-02T16:09:48.865Z,5.73
2018-12-02T16:12:22.133Z,3.70
2018-12-02T16:14:51.866Z,4.67
2018-12-02T16:17:24.892Z,3.80
2018-12-02T16:19:53.466Z,3.83
2018-12-02T16:22:26.786Z,3.73
2018-12-02T16:24:55.367Z,3.57
2018-12-02T16:29:59.779Z,3.87
2018-12-02T16:32:37.758Z,3.60
2018-12-02T16:35:08.568Z,4.53
2018-12-02T16:37:37.633Z,4.80
2018-12-02T16:40:10.523Z,4.10
2018-12-02T16:42:39.870Z,4.20
2018-12-02T16:45:10.785Z,4.87
2018-12-02T16:47:43.968Z,4.53
2018-12-02T16:50:29.661Z,4.60
2018-12-02T16:53:06.009Z,4.80
2018-12-02T16:55:38.497Z,4.40
2018-12-02T16:58:15.344Z,4.67
2018-12-02T17:00:54.551Z,5.10
2018-12-02T17:03:23.194Z,4.77
2018-12-02T17:05:51.809Z,5.03
2018-12-02T17:08:20.688Z,5.30
2018-12-02T17:10:53.905Z,4.77
2018-12-02T17:13:22.530Z,4.63
2018-12-02T17:15:56.520Z,5.43
2018-12-02T17:18:25.649Z,7.30
2018-12-02T17:20:58.828Z,7.73
2018-12-02T17:23:27.922Z,5.47
2018-12-02T17:26:00.527Z,4.97
2018-12-02T17:28:29.097Z,4.43
2018-12-02T17:31:05.815Z,4.17
2018-12-02T17:33:34.664Z,4.30
2018-12-02T17:36:11.843Z,4.70
2018-12-02T17:38:42.112Z,4.03
2018-12-02T17:41:16.058Z,4.10
2018-12-02T17:43:45.795Z,4.57
2018-12-02T17:46:15.374Z,4.47
2018-12-02T17:48:44.843Z,4.87
2018-12-02T17:51:26.422Z,4.50
2018-12-02T17:53:55.880Z,3.80
2018-12-02T17:56:25.248Z,3.87
2018-12-02T17:58:57.672Z,4.00
2018-12-02T18:01:27.085Z,3.83
2018-12-02T18:03:56.224Z,4.40
2018-12-02T18:06:24.823Z,3.30
2018-12-02T18:08:53.806Z,3.37
2018-12-02T18:11:27.486Z,3.57
2018-12-02T18:13:56.078Z,4.33
2018-12-02T18:16:29.122Z,6.23
2018-12-02T18:18:57.724Z,5.60
2018-12-02T18:21:30.337Z,5.20
2018-12-02T18:23:59.933Z,4.50
2018-12-02T18:26:32.985Z,3.53
2018-12-02T18:29:02.573Z,2.70
2018-12-02T18:31:35.729Z,1.53
2018-12-02T18:34:08.909Z,2.23
2018-12-02T18:36:41.141Z,1.40
2018-12-02T18:39:11.806Z,1.40
2018-12-02T18:41:45.389Z,1.20
2018-12-02T18:44:14.945Z,1.77
2018-12-02T18:46:46.750Z,1.47
2018-12-02T18:49:15.378Z,1.50
2018-12-02T18:51:51.237Z,1.70
2018-12-02T18:54:20.366Z,1.30
2018-12-02T18:56:50.556Z,1.20
2018-12-02T18:59:19.167Z,1.17
2018-12-02T19:01:53.486Z,0.87
2018-12-02T19:04:22.188Z,1.60
2018-12-02T19:06:58.616Z,1.20
2018-12-02T19:09:24.472Z,1.33
2018-12-02T19:14:28.103Z,1.20
2018-12-02T19:17:00.887Z,1.40
2018-12-02T19:19:29.930Z,1.30
2018-12-02T19:24:32.618Z,1.60
2018-12-02T19:27:01.309Z,1.77
2018-12-02T19:29:30.688Z,1.60
2018-12-02T19:31:59.310Z,1.80
2018-12-02T19:34:28.392Z,2.27
2018-12-02T19:36:58.784Z,2.27
2018-12-02T19:39:27.505Z,2.40
2018-12-02T19:41:56.156Z,2.70
2018-12-02T19:44:25.787Z,3.33
2018-12-02T19:46:54.448Z,2.80
2018-12-02T19:49:23.326Z,2.57
2018-12-02T19:51:52.376Z,2.90
2018-12-02T19:54:22.855Z,2.90
2018-12-02T19:56:51.440Z,3.30
2018-12-02T19:59:24.124Z,3.60
2018-12-02T20:01:52.702Z,3.60
2018-12-02T20:04:27.643Z,3.50
2018-12-02T20:06:56.500Z,3.17
2018-12-02T20:09:28.988Z,2.70
2018-12-02T20:11:57.568Z,2.70
2018-12-02T20:14:30.425Z,2.53
2018-12-02T20:16:58.998Z,2.97
2018-12-02T20:19:32.742Z,2.63
2018-12-02T20:22:01.615Z,2.80
2018-12-02T20:24:35.888Z,2.30
2018-12-02T20:27:04.500Z,2.60
2018-12-02T20:29:40.155Z,2.63
2018-12-02T20:32:09.297Z,2.70
2018-12-02T20:34:43.255Z,2.80
2018-12-02T20:37:13.252Z,3.87
2018-12-02T20:39:45.409Z,2.47
2018-12-02T20:42:14.443Z,2.60
2018-12-02T20:44:46.825Z,2.67
2018-12-02T20:47:16.703Z,2.20
2018-12-02T20:49:50.010Z,2.97
2018-12-02T20:52:19.073Z,2.67
2018-12-02T20:54:52.869Z,2.60
2018-12-02T20:57:21.901Z,2.17
2018-12-02T20:59:55.268Z,2.30
2018-12-02T21:02:24.609Z,2.33
2018-12-02T21:04:57.568Z,2.10
2018-12-02T21:07:26.696Z,2.63
2018-12-02T21:10:00.474Z,2.33
2018-12-02T21:12:29.088Z,2.57
2018-12-02T21:15:01.828Z,2.43
2018-12-02T21:17:30.496Z,2.80
2018-12-02T21:19:59.360Z,2.73
2018-12-02T21:22:28.481Z,2.30
2018-12-02T21:24:57.088Z,2.80
2018-12-02T21:27:26.477Z,2.90
2018-12-02T21:29:55.101Z,2.70
2018-12-02T21:32:23.715Z,2.90
2018-12-02T21:34:52.411Z,3.17
2018-12-02T21:37:21.453Z,3.00
2018-12-02T21:39:50.979Z,3.37
2018-12-02T21:42:19.571Z,3.50
2018-12-02T21:44:49.723Z,3.50
2018-12-02T21:47:21.915Z,4.23
2018-12-02T21:49:51.042Z,3.80
2018-12-02T21:52:23.384Z,3.93
2018-12-02T21:54:52.783Z,3.60
2018-12-02T21:57:25.795Z,3.87
2018-12-02T21:59:54.852Z,2.73
2018-12-02T22:02:28.597Z,3.50
2018-12-02T22:04:57.225Z,3.90
2018-12-02T22:07:29.531Z,3.93
2018-12-02T22:09:58.568Z,4.40
2018-12-02T22:12:27.238Z,3.77
2018-12-02T22:14:57.203Z,4.13
2018-12-02T22:17:26.311Z,4.47
2018-12-02T22:19:55.341Z,3.80
2018-12-02T22:22:23.924Z,4.80
2018-12-02T22:24:53.238Z,4.00
2018-12-02T22:27:21.916Z,3.80
2018-12-02T22:29:50.544Z,3.63
2018-12-02T22:32:19.697Z,4.03
2018-12-02T22:34:48.393Z,3.93
2018-12-02T22:37:17.482Z,4.10
2018-12-02T22:39:49.546Z,6.33
2018-12-02T22:42:18.577Z,4.27
2018-12-02T22:44:51.157Z,4.50
2018-12-02T22:47:20.625Z,3.30
2018-12-02T22:49:53.258Z,2.07
2018-12-02T22:52:22.335Z,1.73
2018-12-02T22:54:55.432Z,1.73
2018-12-02T22:57:24.470Z,1.60
2018-12-02T22:59:56.068Z,1.40
2018-12-02T23:02:27.908Z,1.27
2018-12-02T23:04:56.492Z,1.37
2018-12-02T23:07:25.536Z,1.10
2018-12-02T23:09:54.984Z,1.00
2018-12-02T23:12:23.567Z,1.13
2018-12-02T23:14:52.123Z,1.30
2018-12-02T23:17:21.955Z,1.10
2018-12-02T23:19:50.589Z,1.20
2018-12-02T23:22:19.632Z,1.30
2018-12-02T23:24:48.604Z,1.10
2018-12-02T23:27:17.945Z,1.30
2018-12-02T23:29:46.520Z,1.40
2018-12-02T23:32:28.669Z,1.00
2018-12-02T23:34:57.701Z,1.17
2018-12-02T23:37:26.271Z,1.30
2018-12-02T23:39:55.358Z,1.10
2018-12-02T23:42:24.435Z,1.10
2018-12-02T23:44:53.465Z,1.23
2018-12-02T23:47:25.031Z,1.00
2018-12-02T23:49:53.600Z,1.13
2018-12-02T23:52:26.221Z,1.00
2018-12-02T23:54:55.184Z,1.07
2018-12-02T23:59:57.633Z,1.00
